sensor_id;sensor_type;location;lat;lon;timestamp;P1;durP1;ratioP1;P2;durP2;ratioP2
20669;SDS011;10494;50.868;4.180;2022-12-11T00:02:27;27.67;;;14.40;;
20669;SDS011;10494;50.868;4.180;2022-12-11T00:04:53;26.60;;;13.07;;
20669;SDS011;10494;50.868;4.180;2022-12-11T00:07:18;26.33;;;14.07;;
20669;SDS011;10494;50.868;4.180;2022-12-11T00:09:44;28.43;;;13.37;;
20669;SDS011;10494;50.868;4.180;2022-12-11T00:12:09;26.57;;;13.40;;
20669;SDS011;10494;50.868;4.180;2022-12-11T00:14:35;30.87;;;14.07;;
20669;SDS011;10494;50.868;4.180;2022-12-11T00:17:02;30.47;;;13.43;;
20669;SDS011;10494;50.868;4.180;2022-12-11T00:19:27;29.37;;;14.13;;
20669;SDS011;10494;50.868;4.180;2022-12-11T00:21:53;30.13;;;13.07;;
20669;SDS011;10494;50.868;4.180;2022-12-11T00:24:18;28.40;;;14.40;;
20669;SDS011;10494;50.868;4.180;2022-12-11T00:26:44;30.63;;;14.63;;
20669;SDS011;10494;50.868;4.180;2022-12-11T00:29:10;31.53;;;13.13;;
20669;SDS011;10494;50.868;4.180;2022-12-11T00:31:38;33.67;;;15.80;;
20669;SDS011;10494;50.868;4.180;2022-12-11T00:34:05;31.17;;;14.73;;
20669;SDS011;10494;50.868;4.180;2022-12-11T00:36:31;28.77;;;14.97;;
20669;SDS011;10494;50.868;4.180;2022-12-11T00:38:57;28.47;;;13.33;;
20669;SDS011;10494;50.868;4.180;2022-12-11T00:41:23;27.63;;;13.97;;
20669;SDS011;10494;50.868;4.180;2022-12-11T00:43:48;27.33;;;12.80;;
20669;SDS011;10494;50.868;4.180;2022-12-11T00:46:15;24.73;;;12.87;;
20669;SDS011;10494;50.868;4.180;2022-12-11T00:48:40;29.00;;;13.63;;
20669;SDS011;10494;50.868;4.180;2022-12-11T00:51:06;23.93;;;13.50;;
20669;SDS011;10494;50.868;4.180;2022-12-11T00:53:32;29.97;;;13.37;;
20669;SDS011;10494;50.868;4.180;2022-12-11T00:55:57;29.23;;;13.67;;
20669;SDS011;10494;50.868;4.180;2022-12-11T00:58:23;27.13;;;13.70;;
20669;SDS011;10494;50.868;4.180;2022-12-11T01:00:48;25.93;;;13.37;;
20669;SDS011;10494;50.868;4.180;2022-12-11T01:03:14;24.27;;;13.37;;
20669;SDS011;10494;50.868;4.180;2022-12-11T01:05:41;28.20;;;13.40;;
20669;SDS011;10494;50.868;4.180;2022-12-11T01:08:18;26.37;;;13.70;;
20669;SDS011;10494;50.868;4.180;2022-12-11T01:10:43;30.67;;;14.67;;
20669;SDS011;10494;50.868;4.180;2022-12-11T01:13:09;24.33;;;13.70;;
20669;SDS011;10494;50.868;4.180;2022-12-11T01:15:42;30.30;;;14.73;;
20669;SDS011;10494;50.868;4.180;2022-12-11T01:18:12;32.00;;;15.23;;
20669;SDS011;10494;50.868;4.180;2022-12-11T01:20:39;28.97;;;13.97;;
20669;SDS011;10494;50.868;4.180;2022-12-11T01:23:06;29.47;;;14.17;;
20669;SDS011;10494;50.868;4.180;2022-12-11T01:25:32;30.00;;;14.03;;
20669;SDS011;10494;50.868;4.180;2022-12-11T01:27:59;24.57;;;12.20;;
20669;SDS011;10494;50.868;4.180;2022-12-11T01:30:25;27.77;;;13.77;;
20669;SDS011;10494;50.868;4.180;2022-12-11T01:32:51;30.77;;;13.87;;
20669;SDS011;10494;50.868;4.180;2022-12-11T01:35:16;25.67;;;13.00;;
20669;SDS011;10494;50.868;4.180;2022-12-11T01:37:43;32.03;;;14.93;;
20669;SDS011;10494;50.868;4.180;2022-12-11T01:40:10;27.73;;;13.50;;
20669;SDS011;10494;50.868;4.180;2022-12-11T01:42:38;31.80;;;15.13;;
20669;SDS011;10494;50.868;4.180;2022-12-11T01:47:48;30.43;;;14.50;;
20669;SDS011;10494;50.868;4.180;2022-12-11T01:50:16;28.73;;;14.67;;
20669;SDS011;10494;50.868;4.180;2022-12-11T01:52:42;34.27;;;15.20;;
20669;SDS011;10494;50.868;4.180;2022-12-11T01:55:10;29.37;;;15.63;;
20669;SDS011;10494;50.868;4.180;2022-12-11T01:57:37;29.70;;;15.00;;
20669;SDS011;10494;50.868;4.180;2022-12-11T02:00:06;30.53;;;15.10;;
20669;SDS011;10494;50.868;4.180;2022-12-11T02:02:33;30.23;;;14.53;;
20669;SDS011;10494;50.868;4.180;2022-12-11T02:05:00;33.23;;;16.77;;
20669;SDS011;10494;50.868;4.180;2022-12-11T02:07:44;32.77;;;16.30;;
20669;SDS011;10494;50.868;4.180;2022-12-11T02:10:14;31.80;;;15.10;;
20669;SDS011;10494;50.868;4.180;2022-12-11T02:15:21;36.13;;;16.40;;
20669;SDS011;10494;50.868;4.180;2022-12-11T02:18:02;36.00;;;15.97;;
20669;SDS011;10494;50.868;4.180;2022-12-11T02:28:29;32.87;;;17.03;;
20669;SDS011;10494;50.868;4.180;2022-12-11T02:31:00;33.17;;;16.40;;
20669;SDS011;10494;50.868;4.180;2022-12-11T02:33:35;34.70;;;15.93;;
20669;SDS011;10494;50.868;4.180;2022-12-11T02:36:07;37.40;;;16.77;;
20669;SDS011;10494;50.868;4.180;2022-12-11T02:38:34;36.03;;;17.43;;
20669;SDS011;10494;50.868;4.180;2022-12-11T02:41:03;36.63;;;17.67;;
20669;SDS011;10494;50.868;4.180;2022-12-11T02:43:31;35.60;;;17.37;;
20669;SDS011;10494;50.868;4.180;2022-12-11T02:46:00;37.37;;;18.37;;
20669;SDS011;10494;50.868;4.180;2022-12-11T02:48:28;39.10;;;18.40;;
20669;SDS011;10494;50.868;4.180;2022-12-11T02:50:56;39.37;;;18.87;;
20669;SDS011;10494;50.868;4.180;2022-12-11T02:53:25;34.33;;;17.23;;
20669;SDS011;10494;50.868;4.180;2022-12-11T02:55:55;38.00;;;19.13;;
20669;SDS011;10494;50.868;4.180;2022-12-11T02:58:38;34.80;;;18.03;;
20669;SDS011;10494;50.868;4.180;2022-12-11T03:01:10;43.27;;;18.07;;
20669;SDS011;10494;50.868;4.180;2022-12-11T03:03:36;39.50;;;19.00;;
20669;SDS011;10494;50.868;4.180;2022-12-11T03:06:02;39.13;;;18.87;;
20669;SDS011;10494;50.868;4.180;2022-12-11T03:08:28;36.23;;;18.03;;
20669;SDS011;10494;50.868;4.180;2022-12-11T03:10:53;39.07;;;18.77;;
20669;SDS011;10494;50.868;4.180;2022-12-11T03:13:19;39.70;;;18.57;;
20669;SDS011;10494;50.868;4.180;2022-12-11T03:24:19;40.87;;;18.83;;
20669;SDS011;10494;50.868;4.180;2022-12-11T03:26:55;39.20;;;19.37;;
20669;SDS011;10494;50.868;4.180;2022-12-11T03:29:25;43.53;;;19.53;;
20669;SDS011;10494;50.868;4.180;2022-12-11T03:32:03;40.20;;;18.43;;
20669;SDS011;10494;50.868;4.180;2022-12-11T03:34:37;39.37;;;18.47;;
20669;SDS011;10494;50.868;4.180;2022-12-11T03:37:22;38.90;;;18.13;;
20669;SDS011;10494;50.868;4.180;2022-12-11T03:39:51;40.57;;;18.73;;
20669;SDS011;10494;50.868;4.180;2022-12-11T03:42:20;38.93;;;18.13;;
20669;SDS011;10494;50.868;4.180;2022-12-11T03:44:48;37.73;;;17.93;;
20669;SDS011;10494;50.868;4.180;2022-12-11T03:47:17;38.07;;;17.83;;
20669;SDS011;10494;50.868;4.180;2022-12-11T03:49:47;37.10;;;18.07;;
20669;SDS011;10494;50.868;4.180;2022-12-11T03:52:14;34.13;;;17.30;;
20669;SDS011;10494;50.868;4.180;2022-12-11T03:54:41;40.00;;;17.20;;
20669;SDS011;10494;50.868;4.180;2022-12-11T03:57:11;39.20;;;18.90;;
20669;SDS011;10494;50.868;4.180;2022-12-11T03:59:40;39.13;;;18.30;;
20669;SDS011;10494;50.868;4.180;2022-12-11T04:02:06;35.30;;;17.67;;
20669;SDS011;10494;50.868;4.180;2022-12-11T04:04:38;37.27;;;18.37;;
20669;SDS011;10494;50.868;4.180;2022-12-11T04:07:05;34.93;;;17.63;;
20669;SDS011;10494;50.868;4.180;2022-12-11T04:09:31;38.23;;;18.20;;
20669;SDS011;10494;50.868;4.180;2022-12-11T04:11:57;37.43;;;17.67;;
20669;SDS011;10494;50.868;4.180;2022-12-11T04:14:24;35.07;;;17.40;;
20669;SDS011;10494;50.868;4.180;2022-12-11T04:17:08;34.80;;;17.50;;
20669;SDS011;10494;50.868;4.180;2022-12-11T04:19:34;37.73;;;19.23;;
20669;SDS011;10494;50.868;4.180;2022-12-11T04:22:18;39.13;;;20.00;;
20669;SDS011;10494;50.868;4.180;2022-12-11T04:25:03;37.23;;;18.87;;
20669;SDS011;10494;50.868;4.180;2022-12-11T04:27:31;40.77;;;19.53;;
20669;SDS011;10494;50.868;4.180;2022-12-11T04:30:22;44.77;;;19.80;;
20669;SDS011;10494;50.868;4.180;2022-12-11T04:32:49;47.00;;;18.50;;
20669;SDS011;10494;50.868;4.180;2022-12-11T04:35:15;39.87;;;20.07;;
20669;SDS011;10494;50.868;4.180;2022-12-11T04:37:41;52.03;;;21.87;;
20669;SDS011;10494;50.868;4.180;2022-12-11T04:40:08;44.17;;;20.70;;
20669;SDS011;10494;50.868;4.180;2022-12-11T04:42:36;48.43;;;21.53;;
20669;SDS011;10494;50.868;4.180;2022-12-11T04:45:02;51.63;;;21.43;;
20669;SDS011;10494;50.868;4.180;2022-12-11T04:47:28;48.13;;;21.50;;
20669;SDS011;10494;50.868;4.180;2022-12-11T04:49:54;53.07;;;22.20;;
20669;SDS011;10494;50.868;4.180;2022-12-11T04:52:20;46.13;;;22.13;;
20669;SDS011;10494;50.868;4.180;2022-12-11T04:54:46;51.40;;;22.33;;
20669;SDS011;10494;50.868;4.180;2022-12-11T04:57:11;56.37;;;21.87;;
20669;SDS011;10494;50.868;4.180;2022-12-11T04:59:37;57.30;;;22.43;;
20669;SDS011;10494;50.868;4.180;2022-12-11T05:02:03;46.67;;;21.97;;
20669;SDS011;10494;50.868;4.180;2022-12-11T05:04:32;50.90;;;21.77;;
20669;SDS011;10494;50.868;4.180;2022-12-11T05:06:59;47.77;;;21.93;;
20669;SDS011;10494;50.868;4.180;2022-12-11T05:09:25;51.93;;;22.77;;
20669;SDS011;10494;50.868;4.180;2022-12-11T05:11:51;42.87;;;21.23;;
20669;SDS011;10494;50.868;4.180;2022-12-11T05:14:17;46.67;;;21.27;;
20669;SDS011;10494;50.868;4.180;2022-12-11T05:16:43;51.67;;;21.93;;
20669;SDS011;10494;50.868;4.180;2022-12-11T05:19:09;43.43;;;20.13;;
20669;SDS011;10494;50.868;4.180;2022-12-11T05:21:35;47.47;;;22.63;;
20669;SDS011;10494;50.868;4.180;2022-12-11T05:24:00;50.97;;;22.47;;
20669;SDS011;10494;50.868;4.180;2022-12-11T05:26:26;48.13;;;22.47;;
20669;SDS011;10494;50.868;4.180;2022-12-11T05:28:52;44.60;;;20.70;;
20669;SDS011;10494;50.868;4.180;2022-12-11T05:31:20;47.80;;;22.33;;
20669;SDS011;10494;50.868;4.180;2022-12-11T05:33:47;50.07;;;23.93;;
20669;SDS011;10494;50.868;4.180;2022-12-11T05:39:09;50.03;;;21.60;;
20669;SDS011;10494;50.868;4.180;2022-12-11T05:41:36;50.30;;;22.73;;
20669;SDS011;10494;50.868;4.180;2022-12-11T05:44:01;52.53;;;22.00;;
20669;SDS011;10494;50.868;4.180;2022-12-11T05:46:28;50.77;;;22.87;;
20669;SDS011;10494;50.868;4.180;2022-12-11T05:48:55;50.47;;;23.17;;
20669;SDS011;10494;50.868;4.180;2022-12-11T05:51:23;46.80;;;21.60;;
20669;SDS011;10494;50.868;4.180;2022-12-11T05:53:50;50.40;;;22.73;;
20669;SDS011;10494;50.868;4.180;2022-12-11T05:56:21;55.47;;;22.40;;
20669;SDS011;10494;50.868;4.180;2022-12-11T05:58:49;49.00;;;22.27;;
20669;SDS011;10494;50.868;4.180;2022-12-11T06:01:16;50.13;;;22.47;;
20669;SDS011;10494;50.868;4.180;2022-12-11T06:03:44;47.67;;;22.50;;
20669;SDS011;10494;50.868;4.180;2022-12-11T06:06:10;52.10;;;22.60;;
20669;SDS011;10494;50.868;4.180;2022-12-11T06:08:36;60.47;;;23.93;;
20669;SDS011;10494;50.868;4.180;2022-12-11T06:11:02;59.77;;;23.80;;
20669;SDS011;10494;50.868;4.180;2022-12-11T06:13:28;54.37;;;23.77;;
20669;SDS011;10494;50.868;4.180;2022-12-11T06:15:54;52.33;;;23.53;;
20669;SDS011;10494;50.868;4.180;2022-12-11T06:18:20;48.47;;;22.50;;
20669;SDS011;10494;50.868;4.180;2022-12-11T06:20:45;53.30;;;22.03;;
20669;SDS011;10494;50.868;4.180;2022-12-11T06:23:11;55.67;;;23.73;;
20669;SDS011;10494;50.868;4.180;2022-12-11T06:25:37;52.77;;;23.80;;
20669;SDS011;10494;50.868;4.180;2022-12-11T06:28:04;53.83;;;22.77;;
20669;SDS011;10494;50.868;4.180;2022-12-11T06:30:30;49.80;;;22.20;;
20669;SDS011;10494;50.868;4.180;2022-12-11T06:32:56;52.07;;;23.17;;
20669;SDS011;10494;50.868;4.180;2022-12-11T06:35:24;54.73;;;24.70;;
20669;SDS011;10494;50.868;4.180;2022-12-11T06:37:51;58.83;;;24.70;;
20669;SDS011;10494;50.868;4.180;2022-12-11T06:40:17;53.53;;;22.07;;
20669;SDS011;10494;50.868;4.180;2022-12-11T06:42:42;56.30;;;23.50;;
20669;SDS011;10494;50.868;4.180;2022-12-11T06:45:08;50.33;;;21.33;;
20669;SDS011;10494;50.868;4.180;2022-12-11T06:47:34;55.07;;;23.17;;
20669;SDS011;10494;50.868;4.180;2022-12-11T06:49:59;58.50;;;23.03;;
20669;SDS011;10494;50.868;4.180;2022-12-11T06:52:26;61.00;;;22.87;;
20669;SDS011;10494;50.868;4.180;2022-12-11T06:54:53;64.63;;;25.40;;
20669;SDS011;10494;50.868;4.180;2022-12-11T06:57:19;55.90;;;22.70;;
20669;SDS011;10494;50.868;4.180;2022-12-11T06:59:45;61.80;;;22.63;;
20669;SDS011;10494;50.868;4.180;2022-12-11T07:02:11;52.93;;;22.90;;
20669;SDS011;10494;50.868;4.180;2022-12-11T07:04:44;51.10;;;21.23;;
20669;SDS011;10494;50.868;4.180;2022-12-11T07:07:10;54.80;;;22.17;;
20669;SDS011;10494;50.868;4.180;2022-12-11T07:09:39;51.30;;;20.73;;
20669;SDS011;10494;50.868;4.180;2022-12-11T07:12:05;51.23;;;20.83;;
20669;SDS011;10494;50.868;4.180;2022-12-11T07:14:34;45.53;;;19.83;;
20669;SDS011;10494;50.868;4.180;2022-12-11T07:16:59;49.37;;;21.93;;
20669;SDS011;10494;50.868;4.180;2022-12-11T07:19:25;49.10;;;21.10;;
20669;SDS011;10494;50.868;4.180;2022-12-11T07:21:51;44.40;;;19.17;;
20669;SDS011;10494;50.868;4.180;2022-12-11T07:24:17;47.03;;;20.43;;
20669;SDS011;10494;50.868;4.180;2022-12-11T07:26:43;47.03;;;20.40;;
20669;SDS011;10494;50.868;4.180;2022-12-11T07:29:09;48.57;;;20.60;;
20669;SDS011;10494;50.868;4.180;2022-12-11T07:31:34;47.03;;;21.20;;
20669;SDS011;10494;50.868;4.180;2022-12-11T07:34:01;50.33;;;21.83;;
20669;SDS011;10494;50.868;4.180;2022-12-11T07:36:29;49.57;;;20.73;;
20669;SDS011;10494;50.868;4.180;2022-12-11T07:38:55;45.47;;;20.67;;
20669;SDS011;10494;50.868;4.180;2022-12-11T07:41:22;41.93;;;18.87;;
20669;SDS011;10494;50.868;4.180;2022-12-11T07:43:48;42.90;;;18.13;;
20669;SDS011;10494;50.868;4.180;2022-12-11T07:46:19;43.73;;;19.63;;
20669;SDS011;10494;50.868;4.180;2022-12-11T07:48:47;45.57;;;18.90;;
20669;SDS011;10494;50.868;4.180;2022-12-11T07:51:18;45.97;;;19.57;;
20669;SDS011;10494;50.868;4.180;2022-12-11T07:53:49;44.83;;;19.83;;
20669;SDS011;10494;50.868;4.180;2022-12-11T07:56:15;48.97;;;20.87;;
20669;SDS011;10494;50.868;4.180;2022-12-11T07:58:42;42.97;;;18.90;;
20669;SDS011;10494;50.868;4.180;2022-12-11T08:01:12;48.47;;;18.80;;
20669;SDS011;10494;50.868;4.180;2022-12-11T08:03:40;50.77;;;20.50;;
20669;SDS011;10494;50.868;4.180;2022-12-11T08:06:06;46.23;;;19.43;;
20669;SDS011;10494;50.868;4.180;2022-12-11T08:08:32;48.90;;;19.70;;
20669;SDS011;10494;50.868;4.180;2022-12-11T08:11:05;51.47;;;22.27;;
20669;SDS011;10494;50.868;4.180;2022-12-11T08:13:32;46.67;;;18.60;;
20669;SDS011;10494;50.868;4.180;2022-12-11T08:15:58;48.60;;;19.83;;
20669;SDS011;10494;50.868;4.180;2022-12-11T08:18:28;47.07;;;20.80;;
20669;SDS011;10494;50.868;4.180;2022-12-11T08:20:54;40.57;;;18.53;;
20669;SDS011;10494;50.868;4.180;2022-12-11T08:23:20;52.67;;;20.40;;
20669;SDS011;10494;50.868;4.180;2022-12-11T08:25:45;54.07;;;20.23;;
20669;SDS011;10494;50.868;4.180;2022-12-11T08:28:11;46.50;;;20.87;;
20669;SDS011;10494;50.868;4.180;2022-12-11T08:30:37;51.80;;;20.23;;
20669;SDS011;10494;50.868;4.180;2022-12-11T08:33:04;47.23;;;19.20;;
20669;SDS011;10494;50.868;4.180;2022-12-11T08:35:30;49.07;;;19.37;;
20669;SDS011;10494;50.868;4.180;2022-12-11T08:37:56;52.53;;;19.27;;
20669;SDS011;10494;50.868;4.180;2022-12-11T08:40:21;46.77;;;19.50;;
20669;SDS011;10494;50.868;4.180;2022-12-11T08:42:47;51.30;;;19.93;;
20669;SDS011;10494;50.868;4.180;2022-12-11T08:45:13;42.77;;;17.60;;
20669;SDS011;10494;50.868;4.180;2022-12-11T08:47:38;50.17;;;18.73;;
20669;SDS011;10494;50.868;4.180;2022-12-11T08:50:04;50.83;;;18.97;;
20669;SDS011;10494;50.868;4.180;2022-12-11T08:52:30;47.90;;;18.17;;
20669;SDS011;10494;50.868;4.180;2022-12-11T08:54:57;45.93;;;17.80;;
20669;SDS011;10494;50.868;4.180;2022-12-11T08:57:23;48.77;;;18.73;;
20669;SDS011;10494;50.868;4.180;2022-12-11T08:59:48;50.30;;;18.67;;
20669;SDS011;10494;50.868;4.180;2022-12-11T09:02:14;53.70;;;20.43;;
20669;SDS011;10494;50.868;4.180;2022-12-11T09:04:40;55.60;;;19.47;;
20669;SDS011;10494;50.868;4.180;2022-12-11T09:07:05;57.57;;;19.60;;
20669;SDS011;10494;50.868;4.180;2022-12-11T09:09:31;54.00;;;19.53;;
20669;SDS011;10494;50.868;4.180;2022-12-11T09:11:57;55.83;;;20.90;;
20669;SDS011;10494;50.868;4.180;2022-12-11T09:14:23;53.20;;;19.50;;
20669;SDS011;10494;50.868;4.180;2022-12-11T09:16:48;48.20;;;19.47;;
20669;SDS011;10494;50.868;4.180;2022-12-11T09:19:15;48.20;;;19.60;;
20669;SDS011;10494;50.868;4.180;2022-12-11T09:21:42;51.23;;;19.20;;
20669;SDS011;10494;50.868;4.180;2022-12-11T09:24:08;50.43;;;19.40;;
20669;SDS011;10494;50.868;4.180;2022-12-11T09:26:35;54.37;;;19.90;;
20669;SDS011;10494;50.868;4.180;2022-12-11T09:29:01;48.13;;;19.27;;
20669;SDS011;10494;50.868;4.180;2022-12-11T09:31:30;50.13;;;19.33;;
20669;SDS011;10494;50.868;4.180;2022-12-11T09:33:58;51.73;;;19.90;;
20669;SDS011;10494;50.868;4.180;2022-12-11T09:36:25;52.83;;;19.17;;
20669;SDS011;10494;50.868;4.180;2022-12-11T09:38:51;52.50;;;19.40;;
20669;SDS011;10494;50.868;4.180;2022-12-11T09:43:51;57.27;;;20.00;;
20669;SDS011;10494;50.868;4.180;2022-12-11T09:46:40;55.10;;;19.47;;
20669;SDS011;10494;50.868;4.180;2022-12-11T09:52:26;56.37;;;19.40;;
20669;SDS011;10494;50.868;4.180;2022-12-11T09:54:59;48.90;;;18.90;;
20669;SDS011;10494;50.868;4.180;2022-12-11T10:01:02;42.73;;;17.53;;
20669;SDS011;10494;50.868;4.180;2022-12-11T10:11:48;50.53;;;19.10;;
20669;SDS011;10494;50.868;4.180;2022-12-11T10:17:08;53.00;;;19.17;;
20669;SDS011;10494;50.868;4.180;2022-12-11T10:19:37;47.03;;;17.57;;
20669;SDS011;10494;50.868;4.180;2022-12-11T10:22:07;42.30;;;17.40;;
20669;SDS011;10494;50.868;4.180;2022-12-11T10:24:41;42.33;;;17.47;;
20669;SDS011;10494;50.868;4.180;2022-12-11T10:27:13;41.90;;;17.13;;
20669;SDS011;10494;50.868;4.180;2022-12-11T10:29:45;47.87;;;17.53;;
20669;SDS011;10494;50.868;4.180;2022-12-11T10:35:17;45.23;;;17.27;;
20669;SDS011;10494;50.868;4.180;2022-12-11T10:38:14;40.17;;;16.90;;
20669;SDS011;10494;50.868;4.180;2022-12-11T10:40:45;43.47;;;18.13;;
20669;SDS011;10494;50.868;4.180;2022-12-11T10:43:16;42.53;;;16.47;;
20669;SDS011;10494;50.868;4.180;2022-12-11T10:45:52;39.30;;;17.03;;
20669;SDS011;10494;50.868;4.180;2022-12-11T10:48:18;36.97;;;16.13;;
20669;SDS011;10494;50.868;4.180;2022-12-11T10:50:53;37.83;;;15.77;;
20669;SDS011;10494;50.868;4.180;2022-12-11T10:53:29;38.87;;;16.30;;
20669;SDS011;10494;50.868;4.180;2022-12-11T10:55:56;34.17;;;14.80;;
20669;SDS011;10494;50.868;4.180;2022-12-11T10:58:24;34.70;;;14.63;;
20669;SDS011;10494;50.868;4.180;2022-12-11T11:01:06;36.17;;;14.17;;
20669;SDS011;10494;50.868;4.180;2022-12-11T11:04:01;33.37;;;14.53;;
20669;SDS011;10494;50.868;4.180;2022-12-11T11:06:30;30.60;;;14.27;;
20669;SDS011;10494;50.868;4.180;2022-12-11T11:08:57;39.20;;;16.23;;
20669;SDS011;10494;50.868;4.180;2022-12-11T11:11:32;34.83;;;14.93;;
20669;SDS011;10494;50.868;4.180;2022-12-11T11:16:34;33.07;;;14.17;;
20669;SDS011;10494;50.868;4.180;2022-12-11T11:19:02;36.33;;;12.80;;
20669;SDS011;10494;50.868;4.180;2022-12-11T11:21:28;32.80;;;13.60;;
20669;SDS011;10494;50.868;4.180;2022-12-11T11:23:55;32.20;;;12.97;;
20669;SDS011;10494;50.868;4.180;2022-12-11T11:26:21;39.47;;;14.90;;
20669;SDS011;10494;50.868;4.180;2022-12-11T11:28:49;32.57;;;13.17;;
20669;SDS011;10494;50.868;4.180;2022-12-11T11:31:20;35.30;;;13.53;;
20669;SDS011;10494;50.868;4.180;2022-12-11T11:33:58;28.27;;;13.00;;
20669;SDS011;10494;50.868;4.180;2022-12-11T11:36:29;32.90;;;13.77;;
20669;SDS011;10494;50.868;4.180;2022-12-11T11:44:43;33.03;;;13.50;;
20669;SDS011;10494;50.868;4.180;2022-12-11T11:47:27;32.00;;;12.70;;
20669;SDS011;10494;50.868;4.180;2022-12-11T11:50:05;36.30;;;13.70;;
20669;SDS011;10494;50.868;4.180;2022-12-11T11:52:38;35.13;;;12.80;;
20669;SDS011;10494;50.868;4.180;2022-12-11T11:58:15;40.07;;;14.33;;
20669;SDS011;10494;50.868;4.180;2022-12-11T12:00:41;35.77;;;13.90;;
20669;SDS011;10494;50.868;4.180;2022-12-11T12:03:17;41.50;;;15.47;;
20669;SDS011;10494;50.868;4.180;2022-12-11T12:08:41;38.93;;;14.73;;
20669;SDS011;10494;50.868;4.180;2022-12-11T12:11:12;39.63;;;15.47;;
20669;SDS011;10494;50.868;4.180;2022-12-11T12:14:06;36.70;;;14.13;;
20669;SDS011;10494;50.868;4.180;2022-12-11T12:17:05;36.33;;;14.67;;
20669;SDS011;10494;50.868;4.180;2022-12-11T12:22:51;31.83;;;13.73;;
20669;SDS011;10494;50.868;4.180;2022-12-11T12:25:17;37.03;;;15.70;;
20669;SDS011;10494;50.868;4.180;2022-12-11T12:31:19;35.97;;;13.83;;
20669;SDS011;10494;50.868;4.180;2022-12-11T12:42:46;38.37;;;15.53;;
20669;SDS011;10494;50.868;4.180;2022-12-11T12:45:40;42.00;;;16.40;;
20669;SDS011;10494;50.868;4.180;2022-12-11T12:48:23;41.03;;;16.40;;
20669;SDS011;10494;50.868;4.180;2022-12-11T12:50:50;42.40;;;16.53;;
20669;SDS011;10494;50.868;4.180;2022-12-11T12:53:19;45.13;;;17.13;;
20669;SDS011;10494;50.868;4.180;2022-12-11T12:55:48;44.90;;;17.50;;
20669;SDS011;10494;50.868;4.180;2022-12-11T12:58:25;39.33;;;16.50;;
20669;SDS011;10494;50.868;4.180;2022-12-11T13:01:05;45.40;;;16.87;;
20669;SDS011;10494;50.868;4.180;2022-12-11T13:08:54;43.57;;;16.57;;
20669;SDS011;10494;50.868;4.180;2022-12-11T13:11:28;49.73;;;18.00;;
20669;SDS011;10494;50.868;4.180;2022-12-11T13:14:04;48.07;;;17.67;;
20669;SDS011;10494;50.868;4.180;2022-12-11T13:16:39;44.47;;;17.50;;
20669;SDS011;10494;50.868;4.180;2022-12-11T13:21:57;43.70;;;16.67;;
20669;SDS011;10494;50.868;4.180;2022-12-11T13:24:45;42.93;;;17.47;;
20669;SDS011;10494;50.868;4.180;2022-12-11T13:30:03;49.53;;;18.00;;
20669;SDS011;10494;50.868;4.180;2022-12-11T13:32:29;49.43;;;17.67;;
20669;SDS011;10494;50.868;4.180;2022-12-11T13:34:56;51.93;;;18.50;;
20669;SDS011;10494;50.868;4.180;2022-12-11T13:39:57;44.13;;;16.87;;
20669;SDS011;10494;50.868;4.180;2022-12-11T13:42:27;49.97;;;18.73;;
20669;SDS011;10494;50.868;4.180;2022-12-11T13:45:03;52.20;;;19.40;;
20669;SDS011;10494;50.868;4.180;2022-12-11T13:47:29;43.63;;;17.90;;
20669;SDS011;10494;50.868;4.180;2022-12-11T13:50:00;50.07;;;18.43;;
20669;SDS011;10494;50.868;4.180;2022-12-11T13:52:51;46.77;;;18.90;;
20669;SDS011;10494;50.868;4.180;2022-12-11T13:55:25;54.20;;;18.97;;
20669;SDS011;10494;50.868;4.180;2022-12-11T13:57:58;54.17;;;18.37;;
20669;SDS011;10494;50.868;4.180;2022-12-11T14:00:28;49.97;;;18.67;;
20669;SDS011;10494;50.868;4.180;2022-12-11T14:02:57;50.60;;;17.57;;
20669;SDS011;10494;50.868;4.180;2022-12-11T14:05:25;55.60;;;20.17;;
20669;SDS011;10494;50.868;4.180;2022-12-11T14:07:55;50.17;;;17.93;;
20669;SDS011;10494;50.868;4.180;2022-12-11T14:13:00;51.50;;;19.17;;
20669;SDS011;10494;50.868;4.180;2022-12-11T14:15:29;59.30;;;19.77;;
20669;SDS011;10494;50.868;4.180;2022-12-11T14:17:56;61.50;;;20.10;;
20669;SDS011;10494;50.868;4.180;2022-12-11T14:20:24;58.00;;;20.33;;
20669;SDS011;10494;50.868;4.180;2022-12-11T14:23:38;55.57;;;20.80;;
20669;SDS011;10494;50.868;4.180;2022-12-11T14:25:50;46.03;;;19.03;;
20669;SDS011;10494;50.868;4.180;2022-12-11T14:28:24;53.43;;;18.80;;
20669;SDS011;10494;50.868;4.180;2022-12-11T14:30:53;54.80;;;20.73;;
20669;SDS011;10494;50.868;4.180;2022-12-11T14:33:23;49.33;;;17.90;;
20669;SDS011;10494;50.868;4.180;2022-12-11T14:35:52;53.43;;;20.37;;
20669;SDS011;10494;50.868;4.180;2022-12-11T14:38:21;47.93;;;19.47;;
20669;SDS011;10494;50.868;4.180;2022-12-11T14:40:55;55.43;;;19.73;;
20669;SDS011;10494;50.868;4.180;2022-12-11T14:43:31;55.83;;;19.07;;
20669;SDS011;10494;50.868;4.180;2022-12-11T14:46:08;44.67;;;19.33;;
20669;SDS011;10494;50.868;4.180;2022-12-11T14:48:56;51.63;;;20.27;;
20669;SDS011;10494;50.868;4.180;2022-12-11T14:51:32;43.27;;;18.50;;
20669;SDS011;10494;50.868;4.180;2022-12-11T14:54:02;47.80;;;17.97;;
20669;SDS011;10494;50.868;4.180;2022-12-11T14:56:29;51.77;;;19.60;;
20669;SDS011;10494;50.868;4.180;2022-12-11T14:58:57;42.23;;;17.80;;
20669;SDS011;10494;50.868;4.180;2022-12-11T15:01:27;46.83;;;18.40;;
20669;SDS011;10494;50.868;4.180;2022-12-11T15:04:18;40.80;;;17.37;;
20669;SDS011;10494;50.868;4.180;2022-12-11T15:06:50;43.07;;;18.20;;
20669;SDS011;10494;50.868;4.180;2022-12-11T15:11:45;47.17;;;19.93;;
20669;SDS011;10494;50.868;4.180;2022-12-11T15:14:12;38.43;;;17.17;;
20669;SDS011;10494;50.868;4.180;2022-12-11T15:16:42;43.47;;;19.17;;
20669;SDS011;10494;50.868;4.180;2022-12-11T15:19:21;44.43;;;18.37;;
20669;SDS011;10494;50.868;4.180;2022-12-11T15:21:53;41.80;;;17.90;;
20669;SDS011;10494;50.868;4.180;2022-12-11T15:24:27;44.50;;;17.53;;
20669;SDS011;10494;50.868;4.180;2022-12-11T15:27:00;43.47;;;19.03;;
20669;SDS011;10494;50.868;4.180;2022-12-11T15:29:36;48.30;;;19.87;;
20669;SDS011;10494;50.868;4.180;2022-12-11T15:34:53;41.70;;;18.33;;
20669;SDS011;10494;50.868;4.180;2022-12-11T15:37:23;42.87;;;18.93;;
20669;SDS011;10494;50.868;4.180;2022-12-11T15:39:54;55.17;;;18.73;;
20669;SDS011;10494;50.868;4.180;2022-12-11T15:42:23;42.97;;;18.43;;
20669;SDS011;10494;50.868;4.180;2022-12-11T15:44:52;42.80;;;18.43;;
20669;SDS011;10494;50.868;4.180;2022-12-11T15:47:20;40.37;;;17.80;;
20669;SDS011;10494;50.868;4.180;2022-12-11T15:50:00;39.30;;;17.27;;
20669;SDS011;10494;50.868;4.180;2022-12-11T15:52:35;49.90;;;18.57;;
20669;SDS011;10494;50.868;4.180;2022-12-11T15:55:01;47.30;;;19.47;;
20669;SDS011;10494;50.868;4.180;2022-12-11T15:57:53;39.47;;;17.47;;
20669;SDS011;10494;50.868;4.180;2022-12-11T16:00:22;37.97;;;17.30;;
20669;SDS011;10494;50.868;4.180;2022-12-11T16:02:48;45.83;;;18.10;;
20669;SDS011;10494;50.868;4.180;2022-12-11T16:05:15;42.33;;;18.97;;
20669;SDS011;10494;50.868;4.180;2022-12-11T16:07:41;44.80;;;18.07;;
20669;SDS011;10494;50.868;4.180;2022-12-11T16:10:09;44.37;;;18.73;;
20669;SDS011;10494;50.868;4.180;2022-12-11T16:12:38;47.20;;;18.43;;
20669;SDS011;10494;50.868;4.180;2022-12-11T16:15:04;38.43;;;16.57;;